sensor_id;sensor_type;location;lat;lon;timestamp;P1;durP1;ratioP1;P2;durP2;ratioP2
42018;SDS011;27703;51.980;5.848;2024-01-16T00:02:07;6.97;;;0.35;;
42018;SDS011;27703;51.980;5.848;2024-01-16T00:04:35;5.82;;;1.25;;
42018;SDS011;27703;51.980;5.848;2024-01-16T00:07:02;2.45;;;0.57;;
42018;SDS011;27703;51.980;5.848;2024-01-16T00:09:27;4.43;;;0.30;;
42018;SDS011;27703;51.980;5.848;2024-01-16T00:11:53;11.18;;;1.15;;
42018;SDS011;27703;51.980;5.848;2024-01-16T00:14:18;4.78;;;0.57;;
42018;SDS011;27703;51.980;5.848;2024-01-16T00:16:47;3.00;;;0.30;;
42018;SDS011;27703;51.980;5.848;2024-01-16T00:19:13;9.38;;;0.40;;
42018;SDS011;27703;51.980;5.848;2024-01-16T00:21:42;2.22;;;0.30;;
42018;SDS011;27703;51.980;5.848;2024-01-16T00:24:11;4.63;;;0.75;;
42018;SDS011;27703;51.980;5.848;2024-01-16T00:26:37;7.13;;;0.70;;
42018;SDS011;27703;51.980;5.848;2024-01-16T00:29:03;5.47;;;1.05;;
42018;SDS011;27703;51.980;5.848;2024-01-16T00:31:28;5.70;;;0.35;;
42018;SDS011;27703;51.980;5.848;2024-01-16T00:33:54;4.85;;;0.30;;
42018;SDS011;27703;51.980;5.848;2024-01-16T00:36:19;2.15;;;0.25;;
42018;SDS011;27703;51.980;5.848;2024-01-16T00:38:45;10.52;;;0.55;;
42018;SDS011;27703;51.980;5.848;2024-01-16T00:41:11;3.90;;;1.02;;
42018;SDS011;27703;51.980;5.848;2024-01-16T00:43:39;4.70;;;0.35;;
42018;SDS011;27703;51.980;5.848;2024-01-16T00:46:05;2.88;;;0.30;;
42018;SDS011;27703;51.980;5.848;2024-01-16T00:48:31;4.00;;;0.70;;
42018;SDS011;27703;51.980;5.848;2024-01-16T00:50:56;4.82;;;0.60;;
42018;SDS011;27703;51.980;5.848;2024-01-16T00:53:22;3.08;;;0.40;;
42018;SDS011;27703;51.980;5.848;2024-01-16T00:55:47;3.90;;;0.50;;
42018;SDS011;27703;51.980;5.848;2024-01-16T00:58:13;4.93;;;0.50;;
42018;SDS011;27703;51.980;5.848;2024-01-16T01:00:38;5.75;;;1.45;;
42018;SDS011;27703;51.980;5.848;2024-01-16T01:03:04;5.47;;;0.40;;
42018;SDS011;27703;51.980;5.848;2024-01-16T01:05:30;5.18;;;0.50;;
42018;SDS011;27703;51.980;5.848;2024-01-16T01:07:56;3.53;;;0.40;;
42018;SDS011;27703;51.980;5.848;2024-01-16T01:10:22;7.82;;;0.57;;
42018;SDS011;27703;51.980;5.848;2024-01-16T01:12:48;2.72;;;0.40;;
42018;SDS011;27703;51.980;5.848;2024-01-16T01:15:14;4.82;;;0.40;;
42018;SDS011;27703;51.980;5.848;2024-01-16T01:17:40;9.18;;;0.50;;
42018;SDS011;27703;51.980;5.848;2024-01-16T01:20:06;5.43;;;0.40;;
42018;SDS011;27703;51.980;5.848;2024-01-16T01:22:37;3.85;;;0.47;;
42018;SDS011;27703;51.980;5.848;2024-01-16T01:25:02;2.42;;;0.30;;
42018;SDS011;27703;51.980;5.848;2024-01-16T01:27:28;8.63;;;0.47;;
42018;SDS011;27703;51.980;5.848;2024-01-16T01:29:54;3.22;;;0.35;;
42018;SDS011;27703;51.980;5.848;2024-01-16T01:32:20;3.63;;;0.40;;
42018;SDS011;27703;51.980;5.848;2024-01-16T01:34:46;5.95;;;0.38;;
42018;SDS011;27703;51.980;5.848;2024-01-16T01:37:11;4.70;;;0.70;;
42018;SDS011;27703;51.980;5.848;2024-01-16T01:39:37;5.07;;;1.58;;
42018;SDS011;27703;51.980;5.848;2024-01-16T01:42:03;3.25;;;0.38;;
42018;SDS011;27703;51.980;5.848;2024-01-16T01:44:29;3.20;;;0.40;;
42018;SDS011;27703;51.980;5.848;2024-01-16T01:46:54;5.70;;;0.38;;
42018;SDS011;27703;51.980;5.848;2024-01-16T01:49:21;2.15;;;0.22;;
42018;SDS011;27703;51.980;5.848;2024-01-16T01:51:47;4.28;;;0.30;;
42018;SDS011;27703;51.980;5.848;2024-01-16T01:54:14;3.90;;;0.25;;
42018;SDS011;27703;51.980;5.848;2024-01-16T01:56:44;6.50;;;0.40;;
42018;SDS011;27703;51.980;5.848;2024-01-16T01:59:11;3.67;;;0.50;;
42018;SDS011;27703;51.980;5.848;2024-01-16T02:01:37;5.05;;;0.70;;
42018;SDS011;27703;51.980;5.848;2024-01-16T02:04:04;2.95;;;0.52;;
42018;SDS011;27703;51.980;5.848;2024-01-16T02:06:31;4.22;;;0.73;;
42018;SDS011;27703;51.980;5.848;2024-01-16T02:08:57;4.10;;;0.40;;
42018;SDS011;27703;51.980;5.848;2024-01-16T02:11:23;8.00;;;0.82;;
42018;SDS011;27703;51.980;5.848;2024-01-16T02:13:49;5.30;;;0.95;;
42018;SDS011;27703;51.980;5.848;2024-01-16T02:16:21;2.95;;;0.85;;
42018;SDS011;27703;51.980;5.848;2024-01-16T02:18:48;4.07;;;0.70;;
42018;SDS011;27703;51.980;5.848;2024-01-16T02:21:27;3.47;;;0.85;;
42018;SDS011;27703;51.980;5.848;2024-01-16T02:23:55;4.47;;;0.40;;
42018;SDS011;27703;51.980;5.848;2024-01-16T02:26:21;5.82;;;0.40;;
42018;SDS011;27703;51.980;5.848;2024-01-16T02:28:47;6.45;;;0.68;;
42018;SDS011;27703;51.980;5.848;2024-01-16T02:31:13;9.40;;;0.82;;
42018;SDS011;27703;51.980;5.848;2024-01-16T02:33:38;8.82;;;0.98;;
42018;SDS011;27703;51.980;5.848;2024-01-16T02:36:04;6.50;;;0.57;;
42018;SDS011;27703;51.980;5.848;2024-01-16T02:38:29;4.53;;;0.50;;
42018;SDS011;27703;51.980;5.848;2024-01-16T02:40:55;2.00;;;0.60;;
42018;SDS011;27703;51.980;5.848;2024-01-16T02:43:20;5.93;;;0.95;;
42018;SDS011;27703;51.980;5.848;2024-01-16T02:45:46;9.00;;;3.13;;
42018;SDS011;27703;51.980;5.848;2024-01-16T02:48:11;10.57;;;4.05;;
42018;SDS011;27703;51.980;5.848;2024-01-16T02:50:37;9.50;;;2.20;;
42018;SDS011;27703;51.980;5.848;2024-01-16T02:53:03;6.30;;;2.45;;
42018;SDS011;27703;51.980;5.848;2024-01-16T02:55:29;8.95;;;2.22;;
42018;SDS011;27703;51.980;5.848;2024-01-16T02:57:54;11.07;;;2.72;;
42018;SDS011;27703;51.980;5.848;2024-01-16T03:00:20;8.07;;;2.72;;
42018;SDS011;27703;51.980;5.848;2024-01-16T03:02:47;5.97;;;2.60;;
42018;SDS011;27703;51.980;5.848;2024-01-16T03:05:13;5.10;;;2.13;;
42018;SDS011;27703;51.980;5.848;2024-01-16T03:07:39;6.18;;;2.30;;
42018;SDS011;27703;51.980;5.848;2024-01-16T03:10:05;5.72;;;2.42;;
42018;SDS011;27703;51.980;5.848;2024-01-16T03:12:31;5.88;;;0.90;;
42018;SDS011;27703;51.980;5.848;2024-01-16T03:14:57;5.05;;;1.83;;
42018;SDS011;27703;51.980;5.848;2024-01-16T03:17:23;4.28;;;1.17;;
42018;SDS011;27703;51.980;5.848;2024-01-16T03:19:48;5.75;;;1.58;;
42018;SDS011;27703;51.980;5.848;2024-01-16T03:22:14;7.80;;;1.10;;
42018;SDS011;27703;51.980;5.848;2024-01-16T03:24:40;4.93;;;1.20;;
42018;SDS011;27703;51.980;5.848;2024-01-16T03:27:05;4.57;;;1.67;;
42018;SDS011;27703;51.980;5.848;2024-01-16T03:29:31;5.82;;;2.08;;
42018;SDS011;27703;51.980;5.848;2024-01-16T03:31:58;7.70;;;1.75;;
42018;SDS011;27703;51.980;5.848;2024-01-16T03:34:24;4.95;;;1.08;;
42018;SDS011;27703;51.980;5.848;2024-01-16T03:36:49;8.15;;;1.55;;
42018;SDS011;27703;51.980;5.848;2024-01-16T03:39:15;5.38;;;1.95;;
42018;SDS011;27703;51.980;5.848;2024-01-16T03:41:40;6.95;;;2.50;;
42018;SDS011;27703;51.980;5.848;2024-01-16T03:44:06;8.88;;;2.10;;
42018;SDS011;27703;51.980;5.848;2024-01-16T03:46:32;9.27;;;3.08;;
42018;SDS011;27703;51.980;5.848;2024-01-16T03:48:57;9.27;;;3.35;;
42018;SDS011;27703;51.980;5.848;2024-01-16T03:51:23;11.05;;;3.15;;
42018;SDS011;27703;51.980;5.848;2024-01-16T03:53:48;7.22;;;2.20;;
42018;SDS011;27703;51.980;5.848;2024-01-16T03:56:16;5.82;;;2.30;;
42018;SDS011;27703;51.980;5.848;2024-01-16T03:58:42;7.00;;;2.60;;
42018;SDS011;27703;51.980;5.848;2024-01-16T04:01:08;8.38;;;1.95;;
42018;SDS011;27703;51.980;5.848;2024-01-16T04:03:33;7.88;;;3.78;;
42018;SDS011;27703;51.980;5.848;2024-01-16T04:06:03;6.88;;;1.75;;
42018;SDS011;27703;51.980;5.848;2024-01-16T04:08:29;6.55;;;2.47;;
42018;SDS011;27703;51.980;5.848;2024-01-16T04:10:54;7.90;;;1.88;;
42018;SDS011;27703;51.980;5.848;2024-01-16T04:13:20;5.47;;;1.55;;
42018;SDS011;27703;51.980;5.848;2024-01-16T04:15:45;4.72;;;1.27;;
42018;SDS011;27703;51.980;5.848;2024-01-16T04:18:11;3.95;;;1.20;;
42018;SDS011;27703;51.980;5.848;2024-01-16T04:20:37;5.70;;;1.52;;
42018;SDS011;27703;51.980;5.848;2024-01-16T04:23:02;3.95;;;0.70;;
42018;SDS011;27703;51.980;5.848;2024-01-16T04:25:28;3.35;;;1.05;;
42018;SDS011;27703;51.980;5.848;2024-01-16T04:27:54;5.22;;;1.00;;
42018;SDS011;27703;51.980;5.848;2024-01-16T04:30:20;3.70;;;0.77;;
42018;SDS011;27703;51.980;5.848;2024-01-16T04:32:45;2.80;;;0.95;;
42018;SDS011;27703;51.980;5.848;2024-01-16T04:35:11;5.72;;;0.65;;
42018;SDS011;27703;51.980;5.848;2024-01-16T04:37:36;2.42;;;1.00;;
42018;SDS011;27703;51.980;5.848;2024-01-16T04:40:02;4.55;;;1.23;;
42018;SDS011;27703;51.980;5.848;2024-01-16T04:42:29;4.03;;;0.80;;
42018;SDS011;27703;51.980;5.848;2024-01-16T04:44:55;4.15;;;1.17;;
42018;SDS011;27703;51.980;5.848;2024-01-16T04:47:20;2.72;;;0.45;;
42018;SDS011;27703;51.980;5.848;2024-01-16T04:49:46;7.30;;;1.23;;
42018;SDS011;27703;51.980;5.848;2024-01-16T04:52:12;3.20;;;0.95;;
42018;SDS011;27703;51.980;5.848;2024-01-16T04:54:37;5.47;;;1.05;;
42018;SDS011;27703;51.980;5.848;2024-01-16T04:57:03;5.40;;;1.08;;
42018;SDS011;27703;51.980;5.848;2024-01-16T04:59:29;6.50;;;1.17;;
42018;SDS011;27703;51.980;5.848;2024-01-16T05:01:55;2.83;;;0.93;;
42018;SDS011;27703;51.980;5.848;2024-01-16T05:04:21;4.53;;;0.70;;
42018;SDS011;27703;51.980;5.848;2024-01-16T05:06:49;2.92;;;0.80;;
42018;SDS011;27703;51.980;5.848;2024-01-16T05:09:15;6.80;;;1.40;;
42018;SDS011;27703;51.980;5.848;2024-01-16T05:11:41;3.30;;;0.80;;
42018;SDS011;27703;51.980;5.848;2024-01-16T05:14:07;2.60;;;0.68;;
42018;SDS011;27703;51.980;5.848;2024-01-16T05:16:32;2.83;;;0.98;;
42018;SDS011;27703;51.980;5.848;2024-01-16T05:18:58;3.40;;;1.55;;
42018;SDS011;27703;51.980;5.848;2024-01-16T05:21:23;3.25;;;0.98;;
42018;SDS011;27703;51.980;5.848;2024-01-16T05:23:49;5.20;;;1.05;;
42018;SDS011;27703;51.980;5.848;2024-01-16T05:26:14;2.30;;;1.00;;
42018;SDS011;27703;51.980;5.848;2024-01-16T05:28:40;7.63;;;2.33;;
42018;SDS011;27703;51.980;5.848;2024-01-16T05:31:06;9.48;;;3.20;;
42018;SDS011;27703;51.980;5.848;2024-01-16T05:33:32;6.05;;;2.15;;
42018;SDS011;27703;51.980;5.848;2024-01-16T05:35:57;3.10;;;1.52;;
42018;SDS011;27703;51.980;5.848;2024-01-16T05:38:23;6.97;;;1.80;;
42018;SDS011;27703;51.980;5.848;2024-01-16T05:40:48;5.80;;;1.65;;
42018;SDS011;27703;51.980;5.848;2024-01-16T05:43:14;5.55;;;1.73;;
42018;SDS011;27703;51.980;5.848;2024-01-16T05:45:40;7.70;;;1.77;;
42018;SDS011;27703;51.980;5.848;2024-01-16T05:48:05;8.93;;;1.27;;
42018;SDS011;27703;51.980;5.848;2024-01-16T05:50:33;6.90;;;1.38;;
42018;SDS011;27703;51.980;5.848;2024-01-16T05:52:59;5.82;;;1.17;;
42018;SDS011;27703;51.980;5.848;2024-01-16T05:55:25;4.38;;;0.70;;
42018;SDS011;27703;51.980;5.848;2024-01-16T05:57:50;3.17;;;0.50;;
42018;SDS011;27703;51.980;5.848;2024-01-16T06:00:16;2.88;;;0.43;;
42018;SDS011;27703;51.980;5.848;2024-01-16T06:02:43;6.35;;;0.82;;
42018;SDS011;27703;51.980;5.848;2024-01-16T06:05:09;6.82;;;0.75;;
42018;SDS011;27703;51.980;5.848;2024-01-16T06:07:34;4.55;;;0.65;;
42018;SDS011;27703;51.980;5.848;2024-01-16T06:10:00;3.63;;;0.85;;
42018;SDS011;27703;51.980;5.848;2024-01-16T06:12:25;7.85;;;0.88;;
42018;SDS011;27703;51.980;5.848;2024-01-16T06:14:51;4.63;;;0.50;;
42018;SDS011;27703;51.980;5.848;2024-01-16T06:17:16;4.03;;;0.95;;
42018;SDS011;27703;51.980;5.848;2024-01-16T06:19:42;7.90;;;0.63;;
42018;SDS011;27703;51.980;5.848;2024-01-16T06:22:08;4.40;;;0.50;;
42018;SDS011;27703;51.980;5.848;2024-01-16T06:24:33;3.63;;;0.65;;
42018;SDS011;27703;51.980;5.848;2024-01-16T06:27:02;2.28;;;0.50;;
42018;SDS011;27703;51.980;5.848;2024-01-16T06:29:29;4.70;;;0.90;;
42018;SDS011;27703;51.980;5.848;2024-01-16T06:31:55;9.07;;;1.00;;
42018;SDS011;27703;51.980;5.848;2024-01-16T06:34:20;4.53;;;0.80;;
42018;SDS011;27703;51.980;5.848;2024-01-16T06:36:46;6.05;;;1.02;;
42018;SDS011;27703;51.980;5.848;2024-01-16T06:39:11;4.38;;;0.60;;
42018;SDS011;27703;51.980;5.848;2024-01-16T06:41:39;6.65;;;0.50;;
42018;SDS011;27703;51.980;5.848;2024-01-16T06:44:05;12.85;;;0.88;;
42018;SDS011;27703;51.980;5.848;2024-01-16T06:46:31;13.10;;;1.83;;
42018;SDS011;27703;51.980;5.848;2024-01-16T06:48:56;11.82;;;1.13;;
42018;SDS011;27703;51.980;5.848;2024-01-16T06:51:22;6.20;;;0.77;;
42018;SDS011;27703;51.980;5.848;2024-01-16T06:53:47;11.70;;;1.70;;
42018;SDS011;27703;51.980;5.848;2024-01-16T06:56:13;6.68;;;0.93;;
42018;SDS011;27703;51.980;5.848;2024-01-16T06:58:38;5.03;;;1.23;;
42018;SDS011;27703;51.980;5.848;2024-01-16T07:01:04;7.82;;;1.30;;
42018;SDS011;27703;51.980;5.848;2024-01-16T07:03:30;7.15;;;1.17;;
42018;SDS011;27703;51.980;5.848;2024-01-16T07:05:55;8.77;;;0.90;;
42018;SDS011;27703;51.980;5.848;2024-01-16T07:08:21;6.85;;;1.45;;
42018;SDS011;27703;51.980;5.848;2024-01-16T07:10:46;4.57;;;0.90;;
42018;SDS011;27703;51.980;5.848;2024-01-16T07:13:12;10.98;;;1.10;;
42018;SDS011;27703;51.980;5.848;2024-01-16T07:15:39;4.47;;;1.02;;
42018;SDS011;27703;51.980;5.848;2024-01-16T07:18:04;7.45;;;1.38;;
42018;SDS011;27703;51.980;5.848;2024-01-16T07:20:30;9.90;;;1.10;;
42018;SDS011;27703;51.980;5.848;2024-01-16T07:22:55;11.32;;;2.10;;
42018;SDS011;27703;51.980;5.848;2024-01-16T07:25:21;9.93;;;2.42;;
42018;SDS011;27703;51.980;5.848;2024-01-16T07:27:46;9.73;;;2.58;;
42018;SDS011;27703;51.980;5.848;2024-01-16T07:30:14;4.45;;;1.80;;
42018;SDS011;27703;51.980;5.848;2024-01-16T07:32:40;7.45;;;2.33;;
42018;SDS011;27703;51.980;5.848;2024-01-16T07:35:06;14.82;;;2.42;;
42018;SDS011;27703;51.980;5.848;2024-01-16T07:37:32;7.63;;;2.80;;
42018;SDS011;27703;51.980;5.848;2024-01-16T07:39:57;4.88;;;2.20;;
42018;SDS011;27703;51.980;5.848;2024-01-16T07:42:23;6.38;;;2.47;;
42018;SDS011;27703;51.980;5.848;2024-01-16T07:44:49;14.75;;;3.67;;
42018;SDS011;27703;51.980;5.848;2024-01-16T07:47:16;14.70;;;4.75;;
42018;SDS011;27703;51.980;5.848;2024-01-16T07:49:42;17.90;;;7.35;;
42018;SDS011;27703;51.980;5.848;2024-01-16T07:52:08;15.35;;;6.47;;
42018;SDS011;27703;51.980;5.848;2024-01-16T07:54:34;9.85;;;5.63;;
42018;SDS011;27703;51.980;5.848;2024-01-16T07:56:59;15.48;;;8.00;;
42018;SDS011;27703;51.980;5.848;2024-01-16T07:59:25;17.42;;;8.25;;
42018;SDS011;27703;51.980;5.848;2024-01-16T08:01:51;12.85;;;7.15;;
42018;SDS011;27703;51.980;5.848;2024-01-16T08:04:17;13.05;;;6.15;;
42018;SDS011;27703;51.980;5.848;2024-01-16T08:06:42;17.23;;;8.23;;
42018;SDS011;27703;51.980;5.848;2024-01-16T08:09:08;14.85;;;7.03;;
42018;SDS011;27703;51.980;5.848;2024-01-16T08:11:36;18.50;;;8.68;;
42018;SDS011;27703;51.980;5.848;2024-01-16T08:14:02;13.60;;;6.60;;
42018;SDS011;27703;51.980;5.848;2024-01-16T08:16:28;17.55;;;7.88;;
42018;SDS011;27703;51.980;5.848;2024-01-16T08:18:53;21.95;;;8.48;;
42018;SDS011;27703;51.980;5.848;2024-01-16T08:21:19;19.55;;;8.27;;
42018;SDS011;27703;51.980;5.848;2024-01-16T08:23:44;23.98;;;9.98;;
42018;SDS011;27703;51.980;5.848;2024-01-16T08:26:10;22.58;;;11.45;;
42018;SDS011;27703;51.980;5.848;2024-01-16T08:28:35;14.27;;;8.52;;
42018;SDS011;27703;51.980;5.848;2024-01-16T08:31:01;16.38;;;8.77;;
42018;SDS011;27703;51.980;5.848;2024-01-16T08:33:27;20.25;;;8.38;;
42018;SDS011;27703;51.980;5.848;2024-01-16T08:35:52;14.63;;;7.65;;
42018;SDS011;27703;51.980;5.848;2024-01-16T08:38:18;11.82;;;7.30;;
42018;SDS011;27703;51.980;5.848;2024-01-16T08:40:43;20.92;;;8.38;;
42018;SDS011;27703;51.980;5.848;2024-01-16T08:43:09;14.85;;;6.90;;
42018;SDS011;27703;51.980;5.848;2024-01-16T08:45:34;15.40;;;8.75;;
42018;SDS011;27703;51.980;5.848;2024-01-16T08:48:00;14.05;;;6.53;;
42018;SDS011;27703;51.980;5.848;2024-01-16T08:50:25;12.70;;;6.22;;
42018;SDS011;27703;51.980;5.848;2024-01-16T08:52:51;14.05;;;6.03;;
42018;SDS011;27703;51.980;5.848;2024-01-16T08:55:16;11.70;;;6.05;;
42018;SDS011;27703;51.980;5.848;2024-01-16T08:57:42;13.35;;;6.90;;
42018;SDS011;27703;51.980;5.848;2024-01-16T09:00:07;12.50;;;6.10;;
42018;SDS011;27703;51.980;5.848;2024-01-16T09:02:34;15.48;;;7.45;;
42018;SDS011;27703;51.980;5.848;2024-01-16T09:05:00;10.02;;;5.47;;
42018;SDS011;27703;51.980;5.848;2024-01-16T09:07:26;13.70;;;5.65;;
42018;SDS011;27703;51.980;5.848;2024-01-16T09:09:52;12.75;;;4.90;;
42018;SDS011;27703;51.980;5.848;2024-01-16T09:12:18;17.33;;;7.05;;
42018;SDS011;27703;51.980;5.848;2024-01-16T09:14:44;10.63;;;5.20;;
42018;SDS011;27703;51.980;5.848;2024-01-16T09:17:10;11.68;;;5.30;;
42018;SDS011;27703;51.980;5.848;2024-01-16T09:19:35;11.68;;;4.60;;
42018;SDS011;27703;51.980;5.848;2024-01-16T09:22:01;9.60;;;3.65;;
42018;SDS011;27703;51.980;5.848;2024-01-16T09:24:28;19.55;;;5.10;;
42018;SDS011;27703;51.980;5.848;2024-01-16T09:26:54;12.60;;;4.45;;
42018;SDS011;27703;51.980;5.848;2024-01-16T09:29:19;11.98;;;5.32;;
42018;SDS011;27703;51.980;5.848;2024-01-16T09:31:46;15.05;;;3.72;;
42018;SDS011;27703;51.980;5.848;2024-01-16T09:34:12;15.35;;;4.25;;
42018;SDS011;27703;51.980;5.848;2024-01-16T09:36:38;10.75;;;3.97;;
42018;SDS011;27703;51.980;5.848;2024-01-16T09:39:04;12.50;;;3.30;;
42018;SDS011;27703;51.980;5.848;2024-01-16T09:41:35;8.75;;;3.67;;
42018;SDS011;27703;51.980;5.848;2024-01-16T09:44:01;10.85;;;3.47;;
42018;SDS011;27703;51.980;5.848;2024-01-16T09:46:27;10.43;;;3.67;;
42018;SDS011;27703;51.980;5.848;2024-01-16T09:48:55;10.00;;;3.30;;
42018;SDS011;27703;51.980;5.848;2024-01-16T09:51:22;9.82;;;4.28;;
42018;SDS011;27703;51.980;5.848;2024-01-16T09:53:48;13.10;;;3.92;;
42018;SDS011;27703;51.980;5.848;2024-01-16T09:56:14;10.60;;;3.38;;
42018;SDS011;27703;51.980;5.848;2024-01-16T09:58:40;12.38;;;3.17;;
42018;SDS011;27703;51.980;5.848;2024-01-16T10:01:07;12.98;;;4.25;;
42018;SDS011;27703;51.980;5.848;2024-01-16T10:03:34;10.90;;;2.97;;
42018;SDS011;27703;51.980;5.848;2024-01-16T10:06:06;6.53;;;2.80;;
42018;SDS011;27703;51.980;5.848;2024-01-16T10:08:32;9.77;;;3.95;;
42018;SDS011;27703;51.980;5.848;2024-01-16T10:10:58;8.65;;;3.47;;
42018;SDS011;27703;51.980;5.848;2024-01-16T10:13:25;9.05;;;3.13;;
42018;SDS011;27703;51.980;5.848;2024-01-16T10:15:51;11.52;;;3.25;;
42018;SDS011;27703;51.980;5.848;2024-01-16T10:18:23;7.32;;;2.75;;
42018;SDS011;27703;51.980;5.848;2024-01-16T10:20:50;14.25;;;2.83;;
42018;SDS011;27703;51.980;5.848;2024-01-16T10:26:26;7.85;;;2.50;;
42018;SDS011;27703;51.980;5.848;2024-01-16T10:28:46;15.00;;;3.03;;
42018;SDS011;27703;51.980;5.848;2024-01-16T10:31:12;11.68;;;2.72;;
42018;SDS011;27703;51.980;5.848;2024-01-16T10:33:41;5.72;;;2.40;;
42018;SDS011;27703;51.980;5.848;2024-01-16T10:38:42;5.25;;;2.30;;
42018;SDS011;27703;51.980;5.848;2024-01-16T10:41:09;7.85;;;3.72;;
42018;SDS011;27703;51.980;5.848;2024-01-16T10:43:36;7.10;;;2.83;;
42018;SDS011;27703;51.980;5.848;2024-01-16T10:46:11;9.18;;;3.58;;
42018;SDS011;27703;51.980;5.848;2024-01-16T10:48:41;6.57;;;1.73;;
42018;SDS011;27703;51.980;5.848;2024-01-16T10:51:09;9.13;;;2.83;;
42018;SDS011;27703;51.980;5.848;2024-01-16T10:53:41;7.18;;;2.58;;
42018;SDS011;27703;51.980;5.848;2024-01-16T10:56:10;14.43;;;3.00;;
42018;SDS011;27703;51.980;5.848;2024-01-16T10:58:38;8.00;;;2.40;;
42018;SDS011;27703;51.980;5.848;2024-01-16T11:01:13;9.25;;;1.92;;
42018;SDS011;27703;51.980;5.848;2024-01-16T11:03:47;6.25;;;2.47;;
42018;SDS011;27703;51.980;5.848;2024-01-16T11:06:14;7.88;;;2.15;;
42018;SDS011;27703;51.980;5.848;2024-01-16T11:08:41;3.88;;;2.05;;
42018;SDS011;27703;51.980;5.848;2024-01-16T11:11:08;11.18;;;1.42;;
42018;SDS011;27703;51.980;5.848;2024-01-16T11:13:34;5.03;;;1.55;;
42018;SDS011;27703;51.980;5.848;2024-01-16T11:16:02;8.05;;;1.50;;
42018;SDS011;27703;51.980;5.848;2024-01-16T11:18:30;4.07;;;1.00;;
42018;SDS011;27703;51.980;5.848;2024-01-16T11:20:58;6.15;;;1.52;;
42018;SDS011;27703;51.980;5.848;2024-01-16T11:23:25;4.82;;;1.55;;
42018;SDS011;27703;51.980;5.848;2024-01-16T11:25:51;7.47;;;1.13;;
42018;SDS011;27703;51.980;5.848;2024-01-16T11:28:16;7.85;;;1.83;;
42018;SDS011;27703;51.980;5.848;2024-01-16T11:30:44;7.05;;;1.40;;
42018;SDS011;27703;51.980;5.848;2024-01-16T11:35:57;7.40;;;1.77;;
42018;SDS011;27703;51.980;5.848;2024-01-16T11:38:23;5.13;;;1.50;;
42018;SDS011;27703;51.980;5.848;2024-01-16T11:40:55;6.93;;;1.17;;
42018;SDS011;27703;51.980;5.848;2024-01-16T11:46:02;7.53;;;1.13;;
42018;SDS011;27703;51.980;5.848;2024-01-16T11:48:32;5.50;;;2.30;;
42018;SDS011;27703;51.980;5.848;2024-01-16T11:50:58;9.68;;;1.85;;
42018;SDS011;27703;51.980;5.848;2024-01-16T11:58:48;5.35;;;2.15;;
42018;SDS011;27703;51.980;5.848;2024-01-16T12:01:22;6.53;;;1.60;;
42018;SDS011;27703;51.980;5.848;2024-01-16T12:04:04;8.48;;;3.13;;
42018;SDS011;27703;51.980;5.848;2024-01-16T12:09:14;8.15;;;2.00;;
42018;SDS011;27703;51.980;5.848;2024-01-16T12:11:42;9.05;;;2.28;;
42018;SDS011;27703;51.980;5.848;2024-01-16T12:14:10;5.47;;;2.13;;
42018;SDS011;27703;51.980;5.848;2024-01-16T12:16:36;10.68;;;2.53;;
42018;SDS011;27703;51.980;5.848;2024-01-16T12:19:09;5.47;;;1.60;;
42018;SDS011;27703;51.980;5.848;2024-01-16T12:21:38;6.40;;;1.45;;
42018;SDS011;27703;51.980;5.848;2024-01-16T12:24:04;7.43;;;1.92;;
42018;SDS011;27703;51.980;5.848;2024-01-16T12:26:30;7.53;;;2.20;;
42018;SDS011;27703;51.980;5.848;2024-01-16T12:28:57;8.63;;;2.08;;
42018;SDS011;27703;51.980;5.848;2024-01-16T12:31:23;9.40;;;3.92;;
42018;SDS011;27703;51.980;5.848;2024-01-16T12:33:49;6.95;;;1.98;;
42018;SDS011;27703;51.980;5.848;2024-01-16T12:36:16;10.75;;;2.10;;
42018;SDS011;27703;51.980;5.848;2024-01-16T12:38:42;8.43;;;1.92;;
42018;SDS011;27703;51.980;5.848;2024-01-16T12:41:08;12.07;;;2.97;;
42018;SDS011;27703;51.980;5.848;2024-01-16T12:43:35;10.98;;;2.13;;
42018;SDS011;27703;51.980;5.848;2024-01-16T12:46:04;9.27;;;2.38;;
42018;SDS011;27703;51.980;5.848;2024-01-16T12:48:31;7.15;;;1.98;;
42018;SDS011;27703;51.980;5.848;2024-01-16T12:51:03;10.45;;;2.80;;
42018;SDS011;27703;51.980;5.848;2024-01-16T12:53:29;5.30;;;1.95;;
42018;SDS011;27703;51.980;5.848;2024-01-16T12:56:00;14.45;;;2.58;;
42018;SDS011;27703;51.980;5.848;2024-01-16T13:01:03;8.02;;;1.33;;
42018;SDS011;27703;51.980;5.848;2024-01-16T13:03:47;10.77;;;1.90;;
42018;SDS011;27703;51.980;5.848;2024-01-16T13:06:17;6.32;;;1.50;;
42018;SDS011;27703;51.980;5.848;2024-01-16T13:08:46;5.60;;;2.03;;
42018;SDS011;27703;51.980;5.848;2024-01-16T13:11:12;10.63;;;2.95;;
42018;SDS011;27703;51.980;5.848;2024-01-16T13:13:41;9.70;;;2.97;;
42018;SDS011;27703;51.980;5.848;2024-01-16T13:16:07;10.18;;;2.47;;
42018;SDS011;27703;51.980;5.848;2024-01-16T13:18:32;4.97;;;2.20;;
42018;SDS011;27703;51.980;5.848;2024-01-16T13:20:59;5.47;;;1.75;;
42018;SDS011;27703;51.980;5.848;2024-01-16T13:23:26;5.72;;;1.65;;
42018;SDS011;27703;51.980;5.848;2024-01-16T13:25:52;5.05;;;1.73;;
42018;SDS011;27703;51.980;5.848;2024-01-16T13:28:25;6.55;;;1.88;;
42018;SDS011;27703;51.980;5.848;2024-01-16T13:30:52;10.23;;;2.50;;
42018;SDS011;27703;51.980;5.848;2024-01-16T13:33:18;9.60;;;1.77;;
42018;SDS011;27703;51.980;5.848;2024-01-16T13:35:44;8.07;;;2.05;;
42018;SDS011;27703;51.980;5.848;2024-01-16T13:38:11;7.97;;;2.25;;
42018;SDS011;27703;51.980;5.848;2024-01-16T13:40:38;7.32;;;1.77;;
42018;SDS011;27703;51.980;5.848;2024-01-16T13:43:03;5.30;;;1.58;;
42018;SDS011;27703;51.980;5.848;2024-01-16T13:45:31;7.53;;;2.03;;
42018;SDS011;27703;51.980;5.848;2024-01-16T13:47:57;5.88;;;1.60;;
42018;SDS011;27703;51.980;5.848;2024-01-16T13:50:23;8.18;;;1.40;;
42018;SDS011;27703;51.980;5.848;2024-01-16T13:52:49;7.00;;;1.67;;
42018;SDS011;27703;51.980;5.848;2024-01-16T13:55:15;5.10;;;1.65;;
42018;SDS011;27703;51.980;5.848;2024-01-16T13:57:41;9.18;;;2.42;;
42018;SDS011;27703;51.980;5.848;2024-01-16T14:00:10;8.85;;;1.63;;
42018;SDS011;27703;51.980;5.848;2024-01-16T14:02:46;7.70;;;1.75;;
42018;SDS011;27703;51.980;5.848;2024-01-16T14:05:16;12.15;;;1.95;;
42018;SDS011;27703;51.980;5.848;2024-01-16T14:07:43;4.82;;;1.80;;
42018;SDS011;27703;51.980;5.848;2024-01-16T14:10:13;4.78;;;1.38;;
42018;SDS011;27703;51.980;5.848;2024-01-16T14:12:40;5.30;;;2.05;;
42018;SDS011;27703;51.980;5.848;2024-01-16T14:15:08;11.00;;;2.65;;
42018;SDS011;27703;51.980;5.848;2024-01-16T14:17:41;6.93;;;2.25;;
42018;SDS011;27703;51.980;5.848;2024-01-16T14:20:09;8.75;;;2.08;;
42018;SDS011;27703;51.980;5.848;2024-01-16T14:22:36;6.82;;;1.65;;
42018;SDS011;27703;51.980;5.848;2024-01-16T14:25:08;3.67;;;2.00;;
42018;SDS011;27703;51.980;5.848;2024-01-16T14:27:42;4.72;;;1.63;;
42018;SDS011;27703;51.980;5.848;2024-01-16T14:30:10;5.00;;;1.70;;
42018;SDS011;27703;51.980;5.848;2024-01-16T14:32:38;3.80;;;1.20;;
42018;SDS011;27703;51.980;5.848;2024-01-16T14:35:05;6.20;;;1.58;;
42018;SDS011;27703;51.980;5.848;2024-01-16T14:37:32;5.78;;;1.70;;
42018;SDS011;27703;51.980;5.848;2024-01-16T14:39:59;5.78;;;1.73;;
42018;SDS011;27703;51.980;5.848;2024-01-16T14:42:40;8.30;;;1.95;;
42018;SDS011;27703;51.980;5.848;2024-01-16T14:45:07;6.28;;;1.75;;
42018;SDS011;27703;51.980;5.848;2024-01-16T14:47:34;7.82;;;2.05;;
42018;SDS011;27703;51.980;5.848;2024-01-16T14:49:59;8.68;;;1.95;;
42018;SDS011;27703;51.980;5.848;2024-01-16T14:52:25;7.43;;;1.85;;
42018;SDS011;27703;51.980;5.848;2024-01-16T14:54:50;6.15;;;1.20;;
42018;SDS011;27703;51.980;5.848;2024-01-16T14:57:16;7.80;;;1.35;;
42018;SDS011;27703;51.980;5.848;2024-01-16T14:59:43;6.22;;;1.40;;
42018;SDS011;27703;51.980;5.848;2024-01-16T15:02:10;4.15;;;0.95;;
42018;SDS011;27703;51.980;5.848;2024-01-16T15:04:41;4.18;;;1.27;;